Terminal Aerodrome Forecast
Issued by NWS Chicago, IL

Home | Current Version | Previous Version | Text Only | Print | Product List | Glossary On
Versions: 1 2 3 4 5 6 7 8 9 10 11 12 13 14 15 16 17 18 19 20 21 22 23
537
FTUS43 KLOT 212340
TAFRFD
TAF
KRFD 212340Z 2200/2224 09005KT 1/4SM -DZ FG OVC003
     FM220700 12007KT 1SM SHRA BR OVC004 PROB30 2209/2215 3/4SM
      -TSRA BR OVC003CB
     FM221700 17012G18KT 2SM -SHRA BR OVC006=

USA.gov is the U.S. government's official web portal to all federal, state and local government web resources and services.